Carnival Miracle — H3VS — position and weather

sailwx.info

Track history (hours):
 
Tides and Currents Weather Stations Pressure Air Temp Water Temp Dewpoint Dewpoint Depression Visibility Wind Speed Wind Dir Waves Ship Positions

Carnival Miracle

Operator: Carnival Cruise Lines

Last reported at 2017-May-29 16:11 UTC. Time now 2017-May-29 16:53 UTC.
Position N 22°52' W 110°05'.

Type: Ship. MMSI: 35437000.

Date/timePositionNaut miles runAvg speedWind from/ knotsBaromVisibWave heightAir tempDewpointWater temp
2017-May-29 16:11N 22°52' W 110°05'316.9
2017-May-29 16:00N 22°55' W 110°07'3117.8
2017-May-29 14:14N 23°17' W 110°31'25020.2
2017-May-29 01:52N 26°04' W 113°55'1021.2
2017-May-29 01:23N 26°12' W 114°02'5921.0
2017-May-28 22:35N 26°57' W 114°45'221.2
2017-May-28 22:29N 26°59' W 114°46'1120.5
2017-May-28 21:58N 27°07' W 114°54'1219.9
2017-May-28 21:22N 27°16' W 115°02'720.4
2017-May-28 21:00N 27°22' W 115°08'1021.0
2017-May-28 20:30N 27°30' W 115°15'3421.1
2017-May-28 18:54N 27°56' W 115°40'8420.2
2017-May-28 14:44N 29°13' W 116°18'520.7
2017-May-28 14:28N 29°18' W 116°20'10621.0
2017-May-28 09:26N 30°57' W 117°03'921.2
2017-May-28 09:00N 31°06' W 117°07'1121.0
2017-May-28 08:30N 31°16' W 117°11'4721.0
2017-May-28 06:18N 31°59' W 117°30'821.3
2017-May-28 05:56N 32°07' W 117°33'920.5
2017-May-28 05:31N 32°14' W 117°37'1020.7
2017-May-28 05:00N 32°24' W 117°41'1020.8
2017-May-28 04:31N 32°34' W 117°45'1020.6
2017-May-28 04:00N 32°44' W 117°49'1020.6
2017-May-28 03:30N 32°54' W 117°52'1020.4
2017-May-28 03:00N 33°03' W 117°56'1020.6
2017-May-28 02:31N 33°13' W 118°02'1020.1
2017-May-28 02:00N 33°22' W 118°08'1019.7
2017-May-28 01:31N 33°31' W 118°12'714.3
2017-May-28 01:00N 33°38' W 118°13'611.1
2017-May-28 00:30N 33°43' W 118°11'2 2.1
2017-May-27 23:39N 33°45' W 118°11'0 0.0
2017-May-27 23:27N 33°45' W 118°11'0 0.0
2017-May-27 22:57N 33°45' W 118°11'0 0.0
2017-May-27 21:44N 33°45' W 118°11'0 0.0
2017-May-27 21:20N 33°45' W 118°11'0 0.0
2017-May-27 20:56N 33°45' W 118°11'0 0.0
2017-May-27 20:26N 33°45' W 118°11'0 0.0
2017-May-27 19:37N 33°45' W 118°11'0 0.0
2017-May-27 19:25N 33°45' W 118°11'0 0.0
2017-May-27 18:55N 33°45' W 118°11'0 0.0
2017-May-27 18:28N 33°45' W 118°11'0 0.0
2017-May-27 18:00N 33°45' W 118°11'0 0.0
2017-May-27 17:30N 33°45' W 118°11'0 0.0
2017-May-27 17:00N 33°45' W 118°11'0 0.0
2017-May-27 16:30N 33°45' W 118°11'0 0.0
2017-May-27 15:54N 33°45' W 118°11'0 0.0
2017-May-27 15:29N 33°45' W 118°11'0 0.0
2017-May-27 14:59N 33°45' W 118°11'0 0.2
2017-May-27 14:00N 33°45' W 118°11'2 4.6
2017-May-27 13:30N 33°43' W 118°11'4 8.6
2017-May-27 13:00N 33°38' W 118°10'510.6
2017-May-27 12:30N 33°33' W 118°08'611.8
2017-May-27 12:00N 33°28' W 118°06'917.7
2017-May-27 11:30N 33°19' W 118°02'918.5
2017-May-27 11:00N 33°11' W 117°58'918.4
2017-May-27 10:30N 33°02' W 117°54'918.0
2017-May-27 10:00N 32°54' W 117°50'917.9
2017-May-27 09:30N 32°45' W 117°46'918.1
2017-May-27 09:01N 32°37' W 117°43'918.2
2017-May-27 08:30N 32°28' W 117°39'918.0
2017-May-27 08:00N 32°20' W 117°36'918.0
2017-May-27 07:30N 32°11' W 117°32'1517.8
2017-May-27 06:38N 31°57' W 117°24'25717.6
2017-May-26 16:00N 28°00' W 115°30'4522.4 340 / 111017.010.8 19.015.918.0
2017-May-26 14:00N 27°24' W 115°00'5820.1 360 / 171016.0 5.4 17.013.716.0
2017-May-26 11:06N 26°39' W 114°20'219.5
2017-May-26 11:00N 26°37' W 114°18'1719.4
2017-May-26 10:06N 26°23' W 114°06'219.7
2017-May-26 09:59N 26°21' W 114°05'3419.1
2017-May-26 08:12N 25°55' W 113°41'918.9
2017-May-26 07:43N 25°47' W 113°35'419.2
2017-May-26 07:30N 25°44' W 113°32'6919.6
2017-May-26 04:00N 24°48' W 112°48'3920.5 320 / 121012.0 5.4 19.017.522.0
2017-May-26 02:05N 24°22' W 112°15'219.4
2017-May-26 02:00N 24°21' W 112°14'1019.1
2017-May-26 01:29N 24°15' W 112°06'1718.9
2017-May-26 00:36N 24°06' W 111°51'819.9
2017-May-26 00:11N 24°02' W 111°42'10619.6
2017-May-25 18:46N 22°58' W 110°11'2228.2
2017-May-25 18:00N 22°42' W 109°54'24820.7 330 / 221012.0 5.4 23.020.124.0
2017-May-25 06:00N 20°42' W 106°00'109 4.6 120 / 71011.010.8 25.022.223.0
2017-May-24 06:00N 21°36' W 107°42'   320 / 71011.010.8 21.018.023.0
2017-May-21 23:31N 26°29' W 114°17'019.9
2017-May-21 23:30N 26°29' W 114°17'1620.7
2017-May-21 22:43N 26°42' W 114°28'520.9
2017-May-21 22:30N 26°46' W 114°31'1721.1
2017-May-21 21:42N 26°60' W 114°42'521.7
2017-May-21 21:29N 27°03' W 114°45'1021.0
2017-May-21 21:00N 27°12' W 114°52'1320.9
2017-May-21 20:22N 27°22' W 115°00'1921.4
2017-May-21 19:29N 27°38' W 115°13'1121.2
2017-May-21 18:59N 27°46' W 115°20'1521.8
2017-May-21 18:19N 27°57' W 115°30'922.5
2017-May-21 17:56N 28°05' W 115°36'1022.5
2017-May-21 17:30N 28°13' W 115°42'5422.1
2017-May-21 15:03N 29°03' W 116°05'222.0
2017-May-21 14:58N 29°05' W 116°06'4721.9
2017-May-21 12:49N 29°49' W 116°26'1722.2
2017-May-21 12:03N 30°05' W 116°33'122.7
2017-May-21 11:59N 30°06' W 116°33'1422.3
2017-May-21 11:21N 30°19' W 116°39'822.3
2017-May-21 11:00N 30°26' W 116°43'1122.5
2017-May-21 10:30N 30°37' W 116°47'1122.7
2017-May-21 10:00N 30°47' W 116°52'1122.8
2017-May-21 09:30N 30°58' W 116°57'1122.8
2017-May-21 09:01N 31°08' W 117°02'1223.0
2017-May-21 08:30N 31°19' W 117°07'1122.7
2017-May-21 08:00N 31°30' W 117°12'1122.5
2017-May-21 07:30N 31°40' W 117°16'1122.3
2017-May-21 07:00N 31°50' W 117°21'1122.2
2017-May-21 06:30N 32°01' W 117°26'1121.9
2017-May-21 06:00N 32°11' W 117°31'8486.8
2017-May-21 06:00N 32°06' W 117°24'1837.5 270 / 121010.010.8 19.015.918.0
2017-May-21 05:30N 32°21' W 117°36'1121.1
2017-May-21 05:00N 32°31' W 117°40'918.7
2017-May-21 04:30N 32°40' W 117°44'918.7
2017-May-21 04:00N 32°48' W 117°48'918.8
2017-May-21 03:30N 32°57' W 117°53'918.8
2017-May-21 03:00N 33°05' W 117°58'918.7
2017-May-21 02:30N 33°14' W 118°03'918.6
2017-May-21 02:00N 33°22' W 118°08'918.7
2017-May-21 01:30N 33°31' W 118°11'714.5
2017-May-21 01:00N 33°38' W 118°13'611.1
2017-May-21 00:30N 33°43' W 118°11'2 3.1
2017-May-21 00:00N 33°45' W 118°11'0 0.0
2017-May-20 23:30N 33°45' W 118°11'0 0.0
2017-May-20 22:59N 33°45' W 118°11'0 0.0
2017-May-20 22:29N 33°45' W 118°11'0 0.0
2017-May-20 21:59N 33°45' W 118°11'0 0.0
2017-May-20 21:29N 33°45' W 118°11'0 0.0
2017-May-20 20:59N 33°45' W 118°11'0 0.0
2017-May-20 20:28N 33°45' W 118°11'0 0.0
2017-May-20 19:59N 33°45' W 118°11'0 0.0
2017-May-20 19:29N 33°45' W 118°11'0 0.0
2017-May-20 18:58N 33°45' W 118°11'0 0.0
2017-May-20 18:28N 33°45' W 118°11'0 0.0
2017-May-20 18:00N 33°45' W 118°11'0 0.0
2017-May-20 17:30N 33°45' W 118°11'0 0.0
2017-May-20 17:00N 33°45' W 118°11'0 0.0
2017-May-20 16:30N 33°45' W 118°11'0 0.0
2017-May-20 16:00N 33°45' W 118°11'0 0.0
2017-May-20 15:29N 33°45' W 118°11'0 0.0
2017-May-20 14:59N 33°45' W 118°11'0 0.3
2017-May-20 14:00N 33°45' W 118°11'1 2.9
2017-May-20 13:30N 33°43' W 118°11'5 9.6
2017-May-20 13:00N 33°38' W 118°10'612.4
2017-May-20 12:30N 33°33' W 118°08'714.4
2017-May-20 12:00N 33°26' W 118°05'917.0
2017-May-20 11:30N 33°18' W 118°02'918.7
2017-May-20 11:00N 33°09' W 117°57'918.9
2017-May-20 10:30N 33°00' W 117°53'918.8
2017-May-20 10:00N 32°52' W 117°49'918.6
2017-May-20 09:30N 32°43' W 117°45'1020.2
2017-May-20 09:01N 32°33' W 117°41'1020.9
2017-May-20 08:30N 32°23' W 117°38'1020.7
2017-May-20 08:00N 32°14' W 117°34'1020.9
2017-May-20 07:30N 32°04' W 117°28'1020.7
2017-May-20 07:00N 31°54' W 117°24'1020.4
2017-May-20 06:30N 31°45' W 117°20'1020.5
2017-May-20 06:00N 31°35' W 117°16'1520.3
2017-May-20 05:17N 31°21' W 117°11'620.2
2017-May-20 04:59N 31°16' W 117°08'1020.2
2017-May-20 04:30N 31°06' W 117°04'1020.1
2017-May-20 04:00N 30°57' W 117°00'1020.1
2017-May-20 03:30N 30°47' W 116°56'1020.2
2017-May-20 03:00N 30°38' W 116°53'7620.5
2017-May-19 23:16N 29°26' W 116°23'  
Track history (hours):
 
Tides and Currents Weather Stations Pressure Air Temp Water Temp Dewpoint Dewpoint Depression Visibility Wind Speed Wind Dir Waves Ship Positions

Carnival Miracle

Operator: Carnival Cruise Lines

Last reported at 2017-May-29 16:11 UTC. Time now 2017-May-29 16:53 UTC.
Position N 22°52' W 110°05'.

Type: Ship. MMSI: 35437000.

Date/timePositionNaut miles runAvg speedWind from/ knotsBaromVisibWave heightAir tempDewpointWater temp
2017-May-29 16:11N 22°52' W 110°05'316.9
2017-May-29 16:00N 22°55' W 110°07'3117.8
2017-May-29 14:14N 23°17' W 110°31'25020.2
2017-May-29 01:52N 26°04' W 113°55'1021.2
2017-May-29 01:23N 26°12' W 114°02'5921.0
2017-May-28 22:35N 26°57' W 114°45'221.2
2017-May-28 22:29N 26°59' W 114°46'1120.5
2017-May-28 21:58N 27°07' W 114°54'1219.9
2017-May-28 21:22N 27°16' W 115°02'720.4
2017-May-28 21:00N 27°22' W 115°08'1021.0
2017-May-28 20:30N 27°30' W 115°15'3421.1
2017-May-28 18:54N 27°56' W 115°40'8420.2
2017-May-28 14:44N 29°13' W 116°18'520.7
2017-May-28 14:28N 29°18' W 116°20'10621.0
2017-May-28 09:26N 30°57' W 117°03'921.2
2017-May-28 09:00N 31°06' W 117°07'1121.0
2017-May-28 08:30N 31°16' W 117°11'4721.0
2017-May-28 06:18N 31°59' W 117°30'821.3
2017-May-28 05:56N 32°07' W 117°33'920.5
2017-May-28 05:31N 32°14' W 117°37'1020.7
2017-May-28 05:00N 32°24' W 117°41'1020.8
2017-May-28 04:31N 32°34' W 117°45'1020.6
2017-May-28 04:00N 32°44' W 117°49'1020.6
2017-May-28 03:30N 32°54' W 117°52'1020.4
2017-May-28 03:00N 33°03' W 117°56'1020.6
2017-May-28 02:31N 33°13' W 118°02'1020.1
2017-May-28 02:00N 33°22' W 118°08'1019.7
2017-May-28 01:31N 33°31' W 118°12'714.3
2017-May-28 01:00N 33°38' W 118°13'611.1
2017-May-28 00:30N 33°43' W 118°11'2 2.1
2017-May-27 23:39N 33°45' W 118°11'0 0.0
2017-May-27 23:27N 33°45' W 118°11'0 0.0
2017-May-27 22:57N 33°45' W 118°11'0 0.0
2017-May-27 21:44N 33°45' W 118°11'0 0.0
2017-May-27 21:20N 33°45' W 118°11'0 0.0
2017-May-27 20:56N 33°45' W 118°11'0 0.0
2017-May-27 20:26N 33°45' W 118°11'0 0.0
2017-May-27 19:37N 33°45' W 118°11'0 0.0
2017-May-27 19:25N 33°45' W 118°11'0 0.0
2017-May-27 18:55N 33°45' W 118°11'0 0.0
2017-May-27 18:28N 33°45' W 118°11'0 0.0
2017-May-27 18:00N 33°45' W 118°11'0 0.0
2017-May-27 17:30N 33°45' W 118°11'0 0.0
2017-May-27 17:00N 33°45' W 118°11'0 0.0
2017-May-27 16:30N 33°45' W 118°11'0 0.0
2017-May-27 15:54N 33°45' W 118°11'0 0.0
2017-May-27 15:29N 33°45' W 118°11'0 0.0
2017-May-27 14:59N 33°45' W 118°11'0 0.2
2017-May-27 14:00N 33°45' W 118°11'2 4.6
2017-May-27 13:30N 33°43' W 118°11'4 8.6
2017-May-27 13:00N 33°38' W 118°10'510.6
2017-May-27 12:30N 33°33' W 118°08'611.8
2017-May-27 12:00N 33°28' W 118°06'917.7
2017-May-27 11:30N 33°19' W 118°02'918.5
2017-May-27 11:00N 33°11' W 117°58'918.4
2017-May-27 10:30N 33°02' W 117°54'918.0
2017-May-27 10:00N 32°54' W 117°50'917.9
2017-May-27 09:30N 32°45' W 117°46'918.1
2017-May-27 09:01N 32°37' W 117°43'918.2
2017-May-27 08:30N 32°28' W 117°39'918.0
2017-May-27 08:00N 32°20' W 117°36'918.0
2017-May-27 07:30N 32°11' W 117°32'1517.8
2017-May-27 06:38N 31°57' W 117°24'25717.6
2017-May-26 16:00N 28°00' W 115°30'4522.4 340 / 111017.010.8 19.015.918.0
2017-May-26 14:00N 27°24' W 115°00'5820.1 360 / 171016.0 5.4 17.013.716.0
2017-May-26 11:06N 26°39' W 114°20'219.5
2017-May-26 11:00N 26°37' W 114°18'1719.4
2017-May-26 10:06N 26°23' W 114°06'219.7
2017-May-26 09:59N 26°21' W 114°05'3419.1
2017-May-26 08:12N 25°55' W 113°41'918.9
2017-May-26 07:43N 25°47' W 113°35'419.2
2017-May-26 07:30N 25°44' W 113°32'6919.6
2017-May-26 04:00N 24°48' W 112°48'3920.5 320 / 121012.0 5.4 19.017.522.0
2017-May-26 02:05N 24°22' W 112°15'219.4
2017-May-26 02:00N 24°21' W 112°14'1019.1
2017-May-26 01:29N 24°15' W 112°06'1718.9
2017-May-26 00:36N 24°06' W 111°51'819.9
2017-May-26 00:11N 24°02' W 111°42'10619.6
2017-May-25 18:46N 22°58' W 110°11'2228.2
2017-May-25 18:00N 22°42' W 109°54'24820.7 330 / 221012.0 5.4 23.020.124.0
2017-May-25 06:00N 20°42' W 106°00'109 4.6 120 / 71011.010.8 25.022.223.0
2017-May-24 06:00N 21°36' W 107°42'   320 / 71011.010.8 21.018.023.0
2017-May-21 23:31N 26°29' W 114°17'019.9
2017-May-21 23:30N 26°29' W 114°17'1620.7
2017-May-21 22:43N 26°42' W 114°28'520.9
2017-May-21 22:30N 26°46' W 114°31'1721.1
2017-May-21 21:42N 26°60' W 114°42'521.7
2017-May-21 21:29N 27°03' W 114°45'1021.0
2017-May-21 21:00N 27°12' W 114°52'1320.9
2017-May-21 20:22N 27°22' W 115°00'1921.4
2017-May-21 19:29N 27°38' W 115°13'1121.2
2017-May-21 18:59N 27°46' W 115°20'1521.8
2017-May-21 18:19N 27°57' W 115°30'922.5
2017-May-21 17:56N 28°05' W 115°36'1022.5
2017-May-21 17:30N 28°13' W 115°42'5422.1
2017-May-21 15:03N 29°03' W 116°05'222.0
2017-May-21 14:58N 29°05' W 116°06'4721.9
2017-May-21 12:49N 29°49' W 116°26'1722.2
2017-May-21 12:03N 30°05' W 116°33'122.7
2017-May-21 11:59N 30°06' W 116°33'1422.3
2017-May-21 11:21N 30°19' W 116°39'822.3
2017-May-21 11:00N 30°26' W 116°43'1122.5
2017-May-21 10:30N 30°37' W 116°47'1122.7
2017-May-21 10:00N 30°47' W 116°52'1122.8
2017-May-21 09:30N 30°58' W 116°57'1122.8
2017-May-21 09:01N 31°08' W 117°02'1223.0
2017-May-21 08:30N 31°19' W 117°07'1122.7
2017-May-21 08:00N 31°30' W 117°12'1122.5
2017-May-21 07:30N 31°40' W 117°16'1122.3
2017-May-21 07:00N 31°50' W 117°21'1122.2
2017-May-21 06:30N 32°01' W 117°26'1121.9
2017-May-21 06:00N 32°11' W 117°31'8486.8
2017-May-21 06:00N 32°06' W 117°24'1837.5 270 / 121010.010.8 19.015.918.0
2017-May-21 05:30N 32°21' W 117°36'1121.1
2017-May-21 05:00N 32°31' W 117°40'918.7
2017-May-21 04:30N 32°40' W 117°44'918.7
2017-May-21 04:00N 32°48' W 117°48'918.8
2017-May-21 03:30N 32°57' W 117°53'918.8
2017-May-21 03:00N 33°05' W 117°58'918.7
2017-May-21 02:30N 33°14' W 118°03'918.6
2017-May-21 02:00N 33°22' W 118°08'918.7
2017-May-21 01:30N 33°31' W 118°11'714.5
2017-May-21 01:00N 33°38' W 118°13'611.1
2017-May-21 00:30N 33°43' W 118°11'2 3.1
2017-May-21 00:00N 33°45' W 118°11'0 0.0
2017-May-20 23:30N 33°45' W 118°11'0 0.0
2017-May-20 22:59N 33°45' W 118°11'0 0.0
2017-May-20 22:29N 33°45' W 118°11'0 0.0
2017-May-20 21:59N 33°45' W 118°11'0 0.0
2017-May-20 21:29N 33°45' W 118°11'0 0.0
2017-May-20 20:59N 33°45' W 118°11'0 0.0
2017-May-20 20:28N 33°45' W 118°11'0 0.0
2017-May-20 19:59N 33°45' W 118°11'0 0.0
2017-May-20 19:29N 33°45' W 118°11'0 0.0
2017-May-20 18:58N 33°45' W 118°11'0 0.0
2017-May-20 18:28N 33°45' W 118°11'0 0.0
2017-May-20 18:00N 33°45' W 118°11'0 0.0
2017-May-20 17:30N 33°45' W 118°11'0 0.0
2017-May-20 17:00N 33°45' W 118°11'0 0.0
2017-May-20 16:30N 33°45' W 118°11'0 0.0
2017-May-20 16:00N 33°45' W 118°11'0 0.0
2017-May-20 15:29N 33°45' W 118°11'0 0.0
2017-May-20 14:59N 33°45' W 118°11'0 0.3
2017-May-20 14:00N 33°45' W 118°11'1 2.9
2017-May-20 13:30N 33°43' W 118°11'5 9.6
2017-May-20 13:00N 33°38' W 118°10'612.4
2017-May-20 12:30N 33°33' W 118°08'714.4
2017-May-20 12:00N 33°26' W 118°05'917.0
2017-May-20 11:30N 33°18' W 118°02'918.7
2017-May-20 11:00N 33°09' W 117°57'918.9
2017-May-20 10:30N 33°00' W 117°53'918.8
2017-May-20 10:00N 32°52' W 117°49'918.6
2017-May-20 09:30N 32°43' W 117°45'1020.2
2017-May-20 09:01N 32°33' W 117°41'1020.9
2017-May-20 08:30N 32°23' W 117°38'1020.7
2017-May-20 08:00N 32°14' W 117°34'1020.9
2017-May-20 07:30N 32°04' W 117°28'1020.7
2017-May-20 07:00N 31°54' W 117°24'1020.4
2017-May-20 06:30N 31°45' W 117°20'1020.5
2017-May-20 06:00N 31°35' W 117°16'1520.3
2017-May-20 05:17N 31°21' W 117°11'620.2
2017-May-20 04:59N 31°16' W 117°08'1020.2
2017-May-20 04:30N 31°06' W 117°04'1020.1
2017-May-20 04:00N 30°57' W 117°00'1020.1
2017-May-20 03:30N 30°47' W 116°56'1020.2
2017-May-20 03:00N 30°38' W 116°53'7620.5
2017-May-19 23:16N 29°26' W 116°23'  

Dump ship's entire track history